Metar Cercanos

 

LEPA - Palma De Mallorc, Spain
Distance from station: ONO 38km
Actualización: Mon, 08-Aug-2022 2:30pm CEST
Few Clouds
Few Clouds
 Viento del OSO
Viento: OSO 19 km/h
Temperatura: 34°C
Indice Calor: 37°C
Rocío: 21°C
Humedad: 47%
Barómetro: 1015 hPa
Clouds: Few Clouds
Visibility: 10 km
Cloud details: Few Clouds 1219 m
2022/08/08 12:30 LEPA 081230Z 24010KT 9999 FEW040 34/21 Q1015 NOSIG
LEMH - Mahon/Menorca Is, Spain
Distance from station: ENE 105km
Actualización: Mon, 08-Aug-2022 2:30pm CEST
Few Clouds
Few Clouds
 Viento del SO
Viento: SO 13 km/h
Temperatura: 32°C
Indice Calor: 34°C
Rocío: 20°C
Humedad: 49%
Barómetro: 1016 hPa
Clouds: Few Clouds
Visibility: 10 km
Cloud details: Few Clouds 396 m
2022/08/08 12:30 LEMH 081230Z 22007KT 150V280 9999 FEW013 32/20 Q1016
 
LEIB - Ibiza/Es Codola, Spain
Distance from station: OSO 165km
Actualización: Mon, 08-Aug-2022 2:30pm CEST
Despejado
Despejado
 Viento del E
Viento: E 9 km/h
Temperatura: 31°C
Indice Calor: 36°C
Rocío: 23°C
Humedad: 62%
Barómetro: 1015 hPa
Resumen: Despejado
Visibility: greater than 10 km
2022/08/08 12:30 LEIB 081230Z 08005KT 020V140 CAVOK 31/23 Q1015 NOSIG
LEBL - Barcelona Airpor, Spain
Distance from station: NNO 225km
Actualización: Mon, 08-Aug-2022 2:30pm CEST
Despejado
Despejado
 Viento del ESE
Viento: ESE 17 km/h
Temperatura: 29°C
Indice Calor: 29°C
Rocío: 18°C
Humedad: 51%
Barómetro: 1016 hPa
Resumen: Despejado
Visibility: greater than 10 km
2022/08/08 12:30 LEBL 081230Z 12009KT 090V160 CAVOK 29/18 Q1016 NOSIG
 
LEVC - Valencia (civ/Mi, Spain
Distance from station: NO 188km
Actualización: Mon, 08-Aug-2022 2:30pm CEST
Few Clouds
Few Clouds
 Viento del E
Viento: E 19 km/h
Temperatura: 33°C
Indice Calor: 35°C
Rocío: 20°C
Humedad: 46%
Barómetro: 1015 hPa
Clouds: Few Clouds
Visibility: 10 km
Cloud details: Few Clouds 610 m
2022/08/08 12:30 LEVC 081230Z 10010KT 070V130 9999 FEW020 33/20 Q1015 NOSIG
LEGE - Gerona/Costa Bra, Spain
Distance from station: N 276km
Actualización: Mon, 08-Aug-2022 2:30pm CEST
Despejado
Despejado
 Viento del S
Viento: S 13 km/h
Temperatura: 35°C
Rocío: 13°C
Humedad: 26%
Barómetro: 1015 hPa
Resumen: Despejado
Visibility: greater than 10 km
2022/08/08 12:30 LEGE 081230Z 18007KT 130V240 CAVOK 35/13 Q1015
 
LEAL - Alicante/El Alte, Spain
Distance from station: OSO 344km
Actualización: Mon, 08-Aug-2022 2:30pm CEST
Few Clouds
Few Clouds
 Viento del E
Viento: E 15 km/h
Temperatura: 32°C
Indice Calor: 36°C
Rocío: 22°C
Humedad: 55%
Barómetro: 1015 hPa
Clouds: Few Clouds
Visibility: 10 km
Cloud details: Few Clouds 762 m
2022/08/08 12:30 LEAL 081230Z 10008KT 060V150 9999 FEW025 32/22 Q1015 NOSIG
LEAM - Almeria Airport, Spain
Distance from station: SSO 56km
Actualización: Mon, 08-Aug-2022 2:30pm CEST
Despejado
Despejado
 Viento del SSO
Viento: SSO 13 km/h
Temperatura: 29°C
Indice Calor: 32°C
Rocío: 23°C
Humedad: 70%
Barómetro: 1015 hPa
Resumen: Despejado
Visibility: greater than 10 km
2022/08/08 12:30 LEAM 081230Z 21007KT 170V250 CAVOK 29/23 Q1015
 
LEZG - Zaragoza (mil/Ci, Spain
Distance from station: NO 431km
Actualización: Mon, 08-Aug-2022 2:30pm CEST
Despejado
Despejado
 Viento del varies
Viento: varies 9 km/h
Temperatura: 34°C
Rocío: 17°C
Humedad: 36%
Barómetro: 1016 hPa
Resumen: Despejado
Visibility: greater than 10 km
2022/08/08 12:30 LEZG 081230Z VRB05KT CAVOK 34/17 Q1016
LEMD - Madrid/Barajas, Spain
Distance from station: ONO 234km
Actualización: Mon, 08-Aug-2022 2:30pm CEST
Few Clouds
Few Clouds
 Viento del SE
Viento: SE 7 km/h
Temperatura: 35°C
Rocío: 10°C
Humedad: 22%
Barómetro: 1016 hPa
Clouds: Few Clouds
Visibility: 10 km
Cloud details: Few Clouds 1829 m
2022/08/08 12:30 LEMD 081230Z 13004KT 9999 FEW060 35/10 Q1016 NOSIG
 
LEGR - Granada Airport, Spain
Distance from station: OSO 62km
Actualización: Mon, 08-Aug-2022 2:30pm CEST
Few Clouds
Few Clouds
 Viento del NNO
Viento: NNO 9 km/h
Temperatura: 35°C
Rocío: 9°C
Humedad: 20%
Barómetro: 1016 hPa
Clouds: Few Clouds
Visibility: 10 km
Cloud details: Few Clouds 2134 m
2022/08/08 12:30 LEGR 081230Z 33005KT 260V030 9999 FEW070 35/09 Q1016
LEMG - Malaga (civ/Mil), Spain
Distance from station: OSO 227km
Actualización: Mon, 08-Aug-2022 2:30pm CEST
Despejado
Despejado
 Viento del SE
Viento: SE 15 km/h
Temperatura: 30°C
Indice Calor: 31°C
Rocío: 18°C
Humedad: 49%
Barómetro: 1015 hPa
Resumen: Despejado
Visibility: greater than 10 km
2022/08/08 12:30 LEMG 081230Z 14008KT 080V200 CAVOK 30/18 Q1015 NOSIG
 
LEZL - Sevilla (civ/Mil, Spain
Distance from station: S 318km
Actualización: Mon, 08-Aug-2022 2:30pm CEST
Despejado
Despejado
 Viento del OSO
Viento: OSO 15 km/h
Temperatura: 28°C
Indice Calor: 28°C
Rocío: 16°C
Humedad: 48%
Barómetro: 1016 hPa
Resumen: Despejado
Visibility: greater than 10 km
2022/08/08 12:30 LEZL 081230Z 25008KT 200V300 CAVOK 28/16 Q1016 NOSIG
LEVT - Vitoria, Spain
Distance from station: NO 226km
Actualización: Mon, 08-Aug-2022 2:30pm CEST
Despejado
Despejado
 Viento del NE
Viento: NE 20 km/h
Temperatura: 30°C
Rocío: 11°C
Humedad: 31%
Barómetro: 1018 hPa
Resumen: Despejado
Visibility: greater than 10 km
2022/08/08 12:30 LEVT 081230Z 04011KT 360V080 CAVOK 30/11 Q1018
 
LEBB - Bilbao/Sondica, Spain
Distance from station: NNO 235km
Actualización: Mon, 08-Aug-2022 2:30pm CEST
Despejado
Despejado
 Viento del ONO
Viento: ONO 20 km/h
Temperatura: 29°C
Indice Calor: 30°C
Rocío: 19°C
Humedad: 55%
Barómetro: 1017 hPa
Resumen: Despejado
Visibility: greater than 10 km
2022/08/08 12:30 LEBB 081230Z 29011KT 250V340 CAVOK 29/19 Q1017 NOSIG
LESO - San Sebastian/Fu, Spain
Distance from station: N 231km
Actualización: Mon, 08-Aug-2022 2:30pm CEST
Despejado
Despejado
 Viento del NO
Viento: NO 9 km/h
Temperatura: 28°C
Indice Calor: 29°C
Rocío: 20°C
Humedad: 62%
Barómetro: 1017 hPa
Resumen: Despejado
Visibility: greater than 10 km
2022/08/08 12:30 LESO 081230Z 32005KT 250V010 CAVOK 28/20 Q1017
 
LEVD - Valladolid(Mil/C, Spain
Distance from station: ONO 239km
Actualización: Mon, 08-Aug-2022 2:30pm CEST
Despejado
Despejado
 Viento del ENE
Viento: ENE 7 km/h
Temperatura: 32°C
Rocío: 10°C
Humedad: 26%
Barómetro: 1018 hPa
Resumen: Despejado
Visibility: greater than 10 km
2022/08/08 12:30 LEVD 081230Z 07004KT CAVOK 32/10 Q1018
LESA - Salamanca (civ/M, Spain
Distance from station: ONO 349km
Actualización: Mon, 08-Aug-2022 2:30pm CEST
Few Clouds
Few Clouds
 Viento del ESE
Viento: ESE 11 km/h
Temperatura: 34°C
Rocío: 8°C
Humedad: 20%
Barómetro: 1017 hPa
Clouds: Few Clouds
Visibility: 10 km
Cloud details: Few Clouds 762 m
2022/08/08 12:30 LESA 081230Z 11006KT 040V160 9999 FEW025 34/08 Q1017
 
LEXJ - Santander/Paraya, Spain
Distance from station: NNO 247km
Actualización: Mon, 08-Aug-2022 2:30pm CEST
Despejado
Despejado
 Viento del NNE
Viento: NNE 13 km/h
Temperatura: 24°C
Rocío: 20°C
Humedad: 78%
Barómetro: 1017 hPa
Resumen: Despejado
Visibility: greater than 10 km
2022/08/08 12:30 LEXJ 081230Z 03007KT 360V080 CAVOK 24/20 Q1017
LEAS - Asturias/Aviles, Spain
Distance from station: NO 214km
Actualización: Mon, 08-Aug-2022 2:30pm CEST
Parcialmente nuboso
Parcialmente nuboso
 Viento del NE
Viento: NE 13 km/h
Temperatura: 24°C
Rocío: 20°C
Humedad: 78%
Barómetro: 1018 hPa
Clouds: Parcialmente nuboso
Visibility: 10 km
Cloud details: Parcialmente nuboso 335 m
Parcialmente nuboso 488 m
2022/08/08 12:30 LEAS 081230Z 04007KT 330V100 9999 SCT011 SCT016 24/20 Q1018 NOSIG
 
LECO - La Coruna/Alvedr, Spain
Distance from station: ONO 222km
Actualización: Mon, 08-Aug-2022 2:30pm CEST
Despejado
Despejado
 Viento del N
Viento: N 9 km/h
Temperatura: 29°C
Indice Calor: 29°C
Rocío: 17°C
Humedad: 48%
Barómetro: 1016 hPa
Resumen: Despejado
Visibility: greater than 10 km
2022/08/08 12:30 LECO 081230Z 36005KT 310V040 CAVOK 29/17 Q1016 NOSIG
LEVX - Vigo/Peinador, Spain
Distance from station: O 214km
Actualización: Mon, 08-Aug-2022 2:30pm CEST
Despejado
Despejado
 Viento del O
Viento: O 15 km/h
Temperatura: 25°C
Rocío: 18°C
Humedad: 65%
Barómetro: 1016 hPa
Resumen: Despejado
Visibility: greater than 10 km
2022/08/08 12:30 LEVX 081230Z 26008KT 230V300 CAVOK 25/18 Q1016 NOSIG